sensor_id;sensor_type;location;lat;lon;timestamp;temperature;humidity
5429;DHT22;2737;52.386;9.980;2023-04-25T00:02:21;7.50;99.90
5429;DHT22;2737;52.386;9.980;2023-04-25T00:04:48;7.50;99.90
5429;DHT22;2737;52.386;9.980;2023-04-25T00:07:16;7.50;99.90
5429;DHT22;2737;52.386;9.980;2023-04-25T00:09:44;7.50;99.90
5429;DHT22;2737;52.386;9.980;2023-04-25T00:12:11;7.50;99.90
5429;DHT22;2737;52.386;9.980;2023-04-25T00:14:38;7.50;99.90
5429;DHT22;2737;52.386;9.980;2023-04-25T00:17:05;7.50;99.90
5429;DHT22;2737;52.386;9.980;2023-04-25T00:19:32;7.50;99.90
5429;DHT22;2737;52.386;9.980;2023-04-25T00:22:00;7.40;99.90
5429;DHT22;2737;52.386;9.980;2023-04-25T00:24:28;7.40;99.90
5429;DHT22;2737;52.386;9.980;2023-04-25T00:26:55;7.40;99.90
5429;DHT22;2737;52.386;9.980;2023-04-25T00:29:22;7.40;99.90
5429;DHT22;2737;52.386;9.980;2023-04-25T00:31:49;7.30;99.90
5429;DHT22;2737;52.386;9.980;2023-04-25T00:34:16;7.30;99.90
5429;DHT22;2737;52.386;9.980;2023-04-25T00:36:43;7.20;99.90
5429;DHT22;2737;52.386;9.980;2023-04-25T00:39:12;7.20;99.90
5429;DHT22;2737;52.386;9.980;2023-04-25T00:41:41;7.20;99.90
5429;DHT22;2737;52.386;9.980;2023-04-25T00:44:09;7.20;99.90
5429;DHT22;2737;52.386;9.980;2023-04-25T00:46:36;7.30;99.90
5429;DHT22;2737;52.386;9.980;2023-04-25T00:49:04;7.30;99.90
5429;DHT22;2737;52.386;9.980;2023-04-25T00:51:33;7.30;99.90
5429;DHT22;2737;52.386;9.980;2023-04-25T00:54:00;7.30;99.90
5429;DHT22;2737;52.386;9.980;2023-04-25T00:56:27;7.30;99.90
5429;DHT22;2737;52.386;9.980;2023-04-25T00:58:56;7.30;99.90
5429;DHT22;2737;52.386;9.980;2023-04-25T01:01:24;7.30;99.90
5429;DHT22;2737;52.386;9.980;2023-04-25T01:03:52;7.30;99.90
5429;DHT22;2737;52.386;9.980;2023-04-25T01:06:20;7.30;99.90
5429;DHT22;2737;52.386;9.980;2023-04-25T01:08:48;7.30;99.90
5429;DHT22;2737;52.386;9.980;2023-04-25T01:11:15;7.30;99.90
5429;DHT22;2737;52.386;9.980;2023-04-25T01:13:42;7.30;99.90
5429;DHT22;2737;52.386;9.980;2023-04-25T01:16:10;7.30;99.90
5429;DHT22;2737;52.386;9.980;2023-04-25T01:18:38;7.20;99.90
5429;DHT22;2737;52.386;9.980;2023-04-25T01:21:09;7.30;99.90
5429;DHT22;2737;52.386;9.980;2023-04-25T01:23:36;7.30;99.90
5429;DHT22;2737;52.386;9.980;2023-04-25T01:26:04;7.30;99.90
5429;DHT22;2737;52.386;9.980;2023-04-25T01:28:33;7.30;99.90
5429;DHT22;2737;52.386;9.980;2023-04-25T01:31:01;7.30;99.90
5429;DHT22;2737;52.386;9.980;2023-04-25T01:33:29;7.20;99.90
5429;DHT22;2737;52.386;9.980;2023-04-25T01:35:56;7.20;99.90
5429;DHT22;2737;52.386;9.980;2023-04-25T01:38:25;7.20;99.90
5429;DHT22;2737;52.386;9.980;2023-04-25T01:40:51;7.20;99.90
5429;DHT22;2737;52.386;9.980;2023-04-25T01:43:20;7.20;99.90
5429;DHT22;2737;52.386;9.980;2023-04-25T01:45:48;7.20;99.90
5429;DHT22;2737;52.386;9.980;2023-04-25T01:48:15;7.20;99.90
5429;DHT22;2737;52.386;9.980;2023-04-25T01:50:43;7.20;99.90
5429;DHT22;2737;52.386;9.980;2023-04-25T01:53:12;7.20;99.90
5429;DHT22;2737;52.386;9.980;2023-04-25T01:55:41;7.10;99.90
5429;DHT22;2737;52.386;9.980;2023-04-25T01:58:08;7.10;99.90
5429;DHT22;2737;52.386;9.980;2023-04-25T02:00:38;7.10;99.90
5429;DHT22;2737;52.386;9.980;2023-04-25T02:03:06;7.10;99.90
5429;DHT22;2737;52.386;9.980;2023-04-25T02:05:36;7.10;99.90
5429;DHT22;2737;52.386;9.980;2023-04-25T02:08:05;7.10;99.90
5429;DHT22;2737;52.386;9.980;2023-04-25T02:10:33;7.10;99.90
5429;DHT22;2737;52.386;9.980;2023-04-25T02:13:01;7.10;99.90
5429;DHT22;2737;52.386;9.980;2023-04-25T02:15:30;7.20;99.90
5429;DHT22;2737;52.386;9.980;2023-04-25T02:17:57;7.20;99.90
5429;DHT22;2737;52.386;9.980;2023-04-25T02:20:26;7.10;99.90
5429;DHT22;2737;52.386;9.980;2023-04-25T02:22:53;7.20;99.90
5429;DHT22;2737;52.386;9.980;2023-04-25T02:25:20;7.20;99.90
5429;DHT22;2737;52.386;9.980;2023-04-25T02:27:47;7.10;99.90
5429;DHT22;2737;52.386;9.980;2023-04-25T02:30:16;7.10;99.90
5429;DHT22;2737;52.386;9.980;2023-04-25T02:32:43;7.00;99.90
5429;DHT22;2737;52.386;9.980;2023-04-25T02:35:10;7.00;99.90
5429;DHT22;2737;52.386;9.980;2023-04-25T02:37:38;6.90;99.90
5429;DHT22;2737;52.386;9.980;2023-04-25T02:40:06;6.90;99.90
5429;DHT22;2737;52.386;9.980;2023-04-25T02:42:34;6.80;99.90
5429;DHT22;2737;52.386;9.980;2023-04-25T02:45:01;6.80;99.90
5429;DHT22;2737;52.386;9.980;2023-04-25T02:47:29;6.70;99.90
5429;DHT22;2737;52.386;9.980;2023-04-25T02:49:56;6.60;99.90
5429;DHT22;2737;52.386;9.980;2023-04-25T02:52:23;6.60;99.90
5429;DHT22;2737;52.386;9.980;2023-04-25T02:54:51;6.60;99.90
5429;DHT22;2737;52.386;9.980;2023-04-25T02:57:18;6.60;99.90
5429;DHT22;2737;52.386;9.980;2023-04-25T02:59:45;6.60;99.90
5429;DHT22;2737;52.386;9.980;2023-04-25T03:02:12;6.50;99.90
5429;DHT22;2737;52.386;9.980;2023-04-25T03:04:40;6.50;99.90
5429;DHT22;2737;52.386;9.980;2023-04-25T03:07:07;6.50;99.90
5429;DHT22;2737;52.386;9.980;2023-04-25T03:09:34;6.40;99.90
5429;DHT22;2737;52.386;9.980;2023-04-25T03:12:01;6.40;99.90
5429;DHT22;2737;52.386;9.980;2023-04-25T03:14:28;6.40;99.90
5429;DHT22;2737;52.386;9.980;2023-04-25T03:16:55;6.40;99.90
5429;DHT22;2737;52.386;9.980;2023-04-25T03:19:22;6.40;99.90
5429;DHT22;2737;52.386;9.980;2023-04-25T03:21:51;6.40;99.90
5429;DHT22;2737;52.386;9.980;2023-04-25T03:24:19;6.40;99.90
5429;DHT22;2737;52.386;9.980;2023-04-25T03:26:46;6.40;99.90
5429;DHT22;2737;52.386;9.980;2023-04-25T03:29:13;6.30;99.90
5429;DHT22;2737;52.386;9.980;2023-04-25T03:31:40;6.40;99.90
5429;DHT22;2737;52.386;9.980;2023-04-25T03:34:07;6.30;99.90
5429;DHT22;2737;52.386;9.980;2023-04-25T03:36:34;6.30;99.90
5429;DHT22;2737;52.386;9.980;2023-04-25T03:39:02;6.20;99.90
5429;DHT22;2737;52.386;9.980;2023-04-25T03:41:29;6.10;99.90
5429;DHT22;2737;52.386;9.980;2023-04-25T03:43:56;6.10;99.90
5429;DHT22;2737;52.386;9.980;2023-04-25T03:46:23;6.10;99.90
5429;DHT22;2737;52.386;9.980;2023-04-25T03:48:50;6.10;99.90
5429;DHT22;2737;52.386;9.980;2023-04-25T03:51:17;6.10;99.90
5429;DHT22;2737;52.386;9.980;2023-04-25T03:53:44;6.10;99.90
5429;DHT22;2737;52.386;9.980;2023-04-25T03:56:12;6.10;99.90
5429;DHT22;2737;52.386;9.980;2023-04-25T03:58:39;6.10;99.90
5429;DHT22;2737;52.386;9.980;2023-04-25T04:01:06;6.10;99.90
5429;DHT22;2737;52.386;9.980;2023-04-25T04:03:33;6.10;99.90
5429;DHT22;2737;52.386;9.980;2023-04-25T04:06:01;6.10;99.90
5429;DHT22;2737;52.386;9.980;2023-04-25T04:08:29;6.20;99.90
5429;DHT22;2737;52.386;9.980;2023-04-25T04:10:56;6.10;99.90
5429;DHT22;2737;52.386;9.980;2023-04-25T04:13:25;6.10;99.90
5429;DHT22;2737;52.386;9.980;2023-04-25T04:15:52;6.10;99.90
5429;DHT22;2737;52.386;9.980;2023-04-25T04:18:19;6.10;99.90
5429;DHT22;2737;52.386;9.980;2023-04-25T04:20:46;6.10;99.90
5429;DHT22;2737;52.386;9.980;2023-04-25T04:23:13;6.20;99.90
5429;DHT22;2737;52.386;9.980;2023-04-25T04:25:41;6.20;99.90
5429;DHT22;2737;52.386;9.980;2023-04-25T04:28:07;6.20;99.90
5429;DHT22;2737;52.386;9.980;2023-04-25T04:30:38;6.20;99.90
5429;DHT22;2737;52.386;9.980;2023-04-25T04:33:04;6.10;99.90
5429;DHT22;2737;52.386;9.980;2023-04-25T04:35:33;6.10;99.90
5429;DHT22;2737;52.386;9.980;2023-04-25T04:38:00;6.20;99.90
5429;DHT22;2737;52.386;9.980;2023-04-25T04:40:27;6.10;99.90
5429;DHT22;2737;52.386;9.980;2023-04-25T04:42:56;6.20;99.90
5429;DHT22;2737;52.386;9.980;2023-04-25T04:45:23;6.20;99.90
5429;DHT22;2737;52.386;9.980;2023-04-25T04:47:52;6.20;99.90
5429;DHT22;2737;52.386;9.980;2023-04-25T04:50:21;6.20;99.90
5429;DHT22;2737;52.386;9.980;2023-04-25T04:52:48;6.20;99.90
5429;DHT22;2737;52.386;9.980;2023-04-25T04:55:15;6.20;99.90
5429;DHT22;2737;52.386;9.980;2023-04-25T04:57:42;6.20;99.90
5429;DHT22;2737;52.386;9.980;2023-04-25T05:00:10;6.20;99.90
5429;DHT22;2737;52.386;9.980;2023-04-25T05:02:38;6.20;99.90
5429;DHT22;2737;52.386;9.980;2023-04-25T05:05:07;6.20;99.90
5429;DHT22;2737;52.386;9.980;2023-04-25T05:07:35;6.30;99.90
5429;DHT22;2737;52.386;9.980;2023-04-25T05:10:02;6.30;99.90
5429;DHT22;2737;52.386;9.980;2023-04-25T05:12:29;6.30;99.90
5429;DHT22;2737;52.386;9.980;2023-04-25T05:14:56;6.40;99.90
5429;DHT22;2737;52.386;9.980;2023-04-25T05:17:23;6.40;99.90
5429;DHT22;2737;52.386;9.980;2023-04-25T05:19:50;6.40;99.90
5429;DHT22;2737;52.386;9.980;2023-04-25T05:22:18;6.30;99.90
5429;DHT22;2737;52.386;9.980;2023-04-25T05:24:45;6.30;99.90
5429;DHT22;2737;52.386;9.980;2023-04-25T05:27:17;6.30;99.90
5429;DHT22;2737;52.386;9.980;2023-04-25T05:29:44;6.30;99.90
5429;DHT22;2737;52.386;9.980;2023-04-25T05:32:11;6.40;99.90
5429;DHT22;2737;52.386;9.980;2023-04-25T05:34:38;6.40;99.90
5429;DHT22;2737;52.386;9.980;2023-04-25T05:37:05;6.40;99.90
5429;DHT22;2737;52.386;9.980;2023-04-25T05:39:33;6.50;99.90
5429;DHT22;2737;52.386;9.980;2023-04-25T05:42:00;6.60;99.90
5429;DHT22;2737;52.386;9.980;2023-04-25T05:44:29;6.70;99.90
5429;DHT22;2737;52.386;9.980;2023-04-25T05:46:56;6.80;99.90
5429;DHT22;2737;52.386;9.980;2023-04-25T05:49:23;6.80;99.90
5429;DHT22;2737;52.386;9.980;2023-04-25T05:51:50;6.80;99.90
5429;DHT22;2737;52.386;9.980;2023-04-25T05:54:17;6.90;99.90
5429;DHT22;2737;52.386;9.980;2023-04-25T05:56:46;6.90;99.90
5429;DHT22;2737;52.386;9.980;2023-04-25T05:59:13;7.00;99.90
5429;DHT22;2737;52.386;9.980;2023-04-25T06:01:40;6.90;99.90
5429;DHT22;2737;52.386;9.980;2023-04-25T06:04:07;6.90;99.90
5429;DHT22;2737;52.386;9.980;2023-04-25T06:06:34;6.90;99.90
5429;DHT22;2737;52.386;9.980;2023-04-25T06:09:01;6.90;99.90
5429;DHT22;2737;52.386;9.980;2023-04-25T06:11:28;7.00;99.90
5429;DHT22;2737;52.386;9.980;2023-04-25T06:13:57;7.10;99.90
5429;DHT22;2737;52.386;9.980;2023-04-25T06:16:24;7.00;99.90
5429;DHT22;2737;52.386;9.980;2023-04-25T06:18:51;7.10;99.90
5429;DHT22;2737;52.386;9.980;2023-04-25T06:21:18;7.30;99.90
5429;DHT22;2737;52.386;9.980;2023-04-25T06:23:45;7.40;99.90
5429;DHT22;2737;52.386;9.980;2023-04-25T06:26:12;7.20;99.90
5429;DHT22;2737;52.386;9.980;2023-04-25T06:28:39;7.20;99.90
5429;DHT22;2737;52.386;9.980;2023-04-25T06:31:07;7.20;99.90
5429;DHT22;2737;52.386;9.980;2023-04-25T06:33:34;7.20;99.90
5429;DHT22;2737;52.386;9.980;2023-04-25T06:36:02;7.20;99.90
5429;DHT22;2737;52.386;9.980;2023-04-25T06:38:29;7.20;99.90
5429;DHT22;2737;52.386;9.980;2023-04-25T06:40:56;7.30;99.90
5429;DHT22;2737;52.386;9.980;2023-04-25T06:43:23;7.60;99.90
5429;DHT22;2737;52.386;9.980;2023-04-25T06:45:51;7.80;99.90
5429;DHT22;2737;52.386;9.980;2023-04-25T06:48:19;7.90;99.90
5429;DHT22;2737;52.386;9.980;2023-04-25T06:50:46;8.20;99.90
5429;DHT22;2737;52.386;9.980;2023-04-25T06:53:13;8.20;99.90
5429;DHT22;2737;52.386;9.980;2023-04-25T06:55:40;7.80;99.90
5429;DHT22;2737;52.386;9.980;2023-04-25T06:58:07;7.80;99.90
5429;DHT22;2737;52.386;9.980;2023-04-25T07:00:34;7.60;99.90
5429;DHT22;2737;52.386;9.980;2023-04-25T07:03:01;7.70;99.90
5429;DHT22;2737;52.386;9.980;2023-04-25T07:05:30;7.50;99.90
5429;DHT22;2737;52.386;9.980;2023-04-25T07:07:57;7.50;99.90
5429;DHT22;2737;52.386;9.980;2023-04-25T07:10:24;7.60;99.90
5429;DHT22;2737;52.386;9.980;2023-04-25T07:12:51;7.70;99.90
5429;DHT22;2737;52.386;9.980;2023-04-25T07:15:18;7.70;99.90
5429;DHT22;2737;52.386;9.980;2023-04-25T07:17:45;7.70;99.90
5429;DHT22;2737;52.386;9.980;2023-04-25T07:20:12;7.90;99.90
5429;DHT22;2737;52.386;9.980;2023-04-25T07:22:40;7.90;99.90
5429;DHT22;2737;52.386;9.980;2023-04-25T07:25:08;7.80;99.90
5429;DHT22;2737;52.386;9.980;2023-04-25T07:27:35;7.70;99.90
5429;DHT22;2737;52.386;9.980;2023-04-25T07:30:03;7.90;99.90
5429;DHT22;2737;52.386;9.980;2023-04-25T07:32:30;8.30;99.90
5429;DHT22;2737;52.386;9.980;2023-04-25T07:34:57;8.50;99.90
5429;DHT22;2737;52.386;9.980;2023-04-25T07:37:24;8.50;99.90
5429;DHT22;2737;52.386;9.980;2023-04-25T07:39:53;8.20;99.90
5429;DHT22;2737;52.386;9.980;2023-04-25T07:42:20;8.10;99.90
5429;DHT22;2737;52.386;9.980;2023-04-25T07:44:47;8.00;99.90
5429;DHT22;2737;52.386;9.980;2023-04-25T07:47:14;7.90;99.90
5429;DHT22;2737;52.386;9.980;2023-04-25T07:49:41;7.60;99.90
5429;DHT22;2737;52.386;9.980;2023-04-25T07:52:08;7.60;99.90
5429;DHT22;2737;52.386;9.980;2023-04-25T07:54:35;7.80;99.90
5429;DHT22;2737;52.386;9.980;2023-04-25T07:57:04;7.90;99.90
5429;DHT22;2737;52.386;9.980;2023-04-25T07:59:32;8.00;99.90
5429;DHT22;2737;52.386;9.980;2023-04-25T08:01:59;8.00;99.90
5429;DHT22;2737;52.386;9.980;2023-04-25T08:04:27;7.70;99.90
5429;DHT22;2737;52.386;9.980;2023-04-25T08:06:54;7.90;99.90
5429;DHT22;2737;52.386;9.980;2023-04-25T08:09:21;8.00;99.90
5429;DHT22;2737;52.386;9.980;2023-04-25T08:11:48;8.00;99.90
5429;DHT22;2737;52.386;9.980;2023-04-25T08:14:16;8.00;99.90
5429;DHT22;2737;52.386;9.980;2023-04-25T08:16:44;8.00;99.90
5429;DHT22;2737;52.386;9.980;2023-04-25T08:19:11;8.00;99.90
5429;DHT22;2737;52.386;9.980;2023-04-25T08:21:38;8.20;99.90
5429;DHT22;2737;52.386;9.980;2023-04-25T08:24:05;8.20;99.90
5429;DHT22;2737;52.386;9.980;2023-04-25T08:26:32;8.10;99.90
5429;DHT22;2737;52.386;9.980;2023-04-25T08:29:00;8.10;99.90
5429;DHT22;2737;52.386;9.980;2023-04-25T08:31:28;8.20;99.90
5429;DHT22;2737;52.386;9.980;2023-04-25T08:33:55;8.50;99.90
5429;DHT22;2737;52.386;9.980;2023-04-25T08:36:22;8.70;99.90
5429;DHT22;2737;52.386;9.980;2023-04-25T08:38:49;8.60;99.90
5429;DHT22;2737;52.386;9.980;2023-04-25T08:41:17;8.80;99.90
5429;DHT22;2737;52.386;9.980;2023-04-25T08:43:48;8.80;99.90
5429;DHT22;2737;52.386;9.980;2023-04-25T08:46:17;8.90;99.90
5429;DHT22;2737;52.386;9.980;2023-04-25T08:48:46;9.00;99.90
5429;DHT22;2737;52.386;9.980;2023-04-25T08:51:20;9.30;99.90
5429;DHT22;2737;52.386;9.980;2023-04-25T08:53:49;9.40;99.90
5429;DHT22;2737;52.386;9.980;2023-04-25T08:56:18;9.00;99.90
5429;DHT22;2737;52.386;9.980;2023-04-25T08:58:48;8.90;99.90
5429;DHT22;2737;52.386;9.980;2023-04-25T09:01:16;8.60;99.90
5429;DHT22;2737;52.386;9.980;2023-04-25T09:03:45;8.40;99.90
5429;DHT22;2737;52.386;9.980;2023-04-25T09:06:13;8.40;99.90
5429;DHT22;2737;52.386;9.980;2023-04-25T09:08:41;8.40;99.90
5429;DHT22;2737;52.386;9.980;2023-04-25T09:11:08;8.40;99.90
5429;DHT22;2737;52.386;9.980;2023-04-25T09:13:36;8.30;99.90
5429;DHT22;2737;52.386;9.980;2023-04-25T09:16:03;8.20;99.90
5429;DHT22;2737;52.386;9.980;2023-04-25T09:18:31;8.10;99.90
5429;DHT22;2737;52.386;9.980;2023-04-25T09:21:06;8.10;99.90
5429;DHT22;2737;52.386;9.980;2023-04-25T09:23:39;8.20;99.90
5429;DHT22;2737;52.386;9.980;2023-04-25T09:26:07;8.30;99.90
5429;DHT22;2737;52.386;9.980;2023-04-25T09:28:34;8.50;99.90
5429;DHT22;2737;52.386;9.980;2023-04-25T09:31:03;8.60;99.90
5429;DHT22;2737;52.386;9.980;2023-04-25T09:33:32;8.70;99.90
5429;DHT22;2737;52.386;9.980;2023-04-25T09:36:06;8.90;99.90
5429;DHT22;2737;52.386;9.980;2023-04-25T09:38:41;9.00;99.90
5429;DHT22;2737;52.386;9.980;2023-04-25T09:41:09;9.30;99.90
5429;DHT22;2737;52.386;9.980;2023-04-25T09:43:38;9.40;99.90
5429;DHT22;2737;52.386;9.980;2023-04-25T09:46:08;9.50;99.90
5429;DHT22;2737;52.386;9.980;2023-04-25T09:48:36;9.60;99.90
5429;DHT22;2737;52.386;9.980;2023-04-25T09:51:06;9.60;99.90
5429;DHT22;2737;52.386;9.980;2023-04-25T09:53:34;9.80;99.90
5429;DHT22;2737;52.386;9.980;2023-04-25T09:56:04;9.80;99.90
5429;DHT22;2737;52.386;9.980;2023-04-25T09:58:32;9.90;99.90
5429;DHT22;2737;52.386;9.980;2023-04-25T10:01:01;9.60;98.90
5429;DHT22;2737;52.386;9.980;2023-04-25T10:03:30;9.50;99.30
5429;DHT22;2737;52.386;9.980;2023-04-25T10:05:59;9.30;99.00
5429;DHT22;2737;52.386;9.980;2023-04-25T10:08:31;9.40;99.30
5429;DHT22;2737;52.386;9.980;2023-04-25T10:11:00;9.40;99.90
5429;DHT22;2737;52.386;9.980;2023-04-25T10:13:29;9.30;99.90
5429;DHT22;2737;52.386;9.980;2023-04-25T10:15:57;9.20;99.90
5429;DHT22;2737;52.386;9.980;2023-04-25T10:18:25;9.00;99.90
5429;DHT22;2737;52.386;9.980;2023-04-25T10:20:54;8.90;99.90
5429;DHT22;2737;52.386;9.980;2023-04-25T10:23:22;8.80;99.90
5429;DHT22;2737;52.386;9.980;2023-04-25T10:25:52;9.10;99.90
5429;DHT22;2737;52.386;9.980;2023-04-25T10:28:19;9.40;99.90
5429;DHT22;2737;52.386;9.980;2023-04-25T10:31:02;9.60;99.90
5429;DHT22;2737;52.386;9.980;2023-04-25T10:33:32;9.60;99.90
5429;DHT22;2737;52.386;9.980;2023-04-25T10:36:08;9.50;99.90
5429;DHT22;2737;52.386;9.980;2023-04-25T10:38:36;9.10;99.90
5429;DHT22;2737;52.386;9.980;2023-04-25T10:41:06;9.10;99.90
5429;DHT22;2737;52.386;9.980;2023-04-25T10:43:38;9.00;99.90
5429;DHT22;2737;52.386;9.980;2023-04-25T10:46:19;8.80;99.90
5429;DHT22;2737;52.386;9.980;2023-04-25T10:48:50;8.70;99.90
5429;DHT22;2737;52.386;9.980;2023-04-25T10:51:21;8.50;99.90
5429;DHT22;2737;52.386;9.980;2023-04-25T10:53:58;8.40;99.90
5429;DHT22;2737;52.386;9.980;2023-04-25T10:56:28;8.50;99.90
5429;DHT22;2737;52.386;9.980;2023-04-25T10:59:06;8.50;99.90
5429;DHT22;2737;52.386;9.980;2023-04-25T11:01:37;8.50;99.90
5429;DHT22;2737;52.386;9.980;2023-04-25T11:04:04;8.50;99.90
5429;DHT22;2737;52.386;9.980;2023-04-25T11:06:43;8.50;99.90
5429;DHT22;2737;52.386;9.980;2023-04-25T11:09:13;8.50;99.90
5429;DHT22;2737;52.386;9.980;2023-04-25T11:11:42;8.70;99.90
5429;DHT22;2737;52.386;9.980;2023-04-25T11:14:09;8.90;99.90
5429;DHT22;2737;52.386;9.980;2023-04-25T11:16:36;9.10;99.90
5429;DHT22;2737;52.386;9.980;2023-04-25T11:19:03;9.40;99.90
5429;DHT22;2737;52.386;9.980;2023-04-25T11:21:30;9.50;99.90
5429;DHT22;2737;52.386;9.980;2023-04-25T11:23:59;9.50;99.90
5429;DHT22;2737;52.386;9.980;2023-04-25T11:26:26;9.80;99.90
5429;DHT22;2737;52.386;9.980;2023-04-25T11:28:58;10.20;99.90
5429;DHT22;2737;52.386;9.980;2023-04-25T11:31:26;10.10;99.90
5429;DHT22;2737;52.386;9.980;2023-04-25T11:33:53;10.20;99.80
5429;DHT22;2737;52.386;9.980;2023-04-25T11:36:22;10.00;98.40
5429;DHT22;2737;52.386;9.980;2023-04-25T11:38:50;10.10;98.30
5429;DHT22;2737;52.386;9.980;2023-04-25T11:41:17;10.40;97.30
5429;DHT22;2737;52.386;9.980;2023-04-25T11:43:44;10.50;97.40
5429;DHT22;2737;52.386;9.980;2023-04-25T11:46:13;10.50;97.90
5429;DHT22;2737;52.386;9.980;2023-04-25T11:48:40;10.20;97.70
5429;DHT22;2737;52.386;9.980;2023-04-25T11:51:08;9.90;99.10
5429;DHT22;2737;52.386;9.980;2023-04-25T11:53:35;9.40;99.40
5429;DHT22;2737;52.386;9.980;2023-04-25T11:56:09;9.10;99.90
5429;DHT22;2737;52.386;9.980;2023-04-25T11:58:54;9.10;99.90
5429;DHT22;2737;52.386;9.980;2023-04-25T12:01:27;8.70;99.90
5429;DHT22;2737;52.386;9.980;2023-04-25T12:03:54;8.40;99.90
5429;DHT22;2737;52.386;9.980;2023-04-25T12:06:25;8.20;99.90
5429;DHT22;2737;52.386;9.980;2023-04-25T12:09:00;8.00;99.90
5429;DHT22;2737;52.386;9.980;2023-04-25T12:11:27;7.80;99.90
5429;DHT22;2737;52.386;9.980;2023-04-25T12:13:56;7.80;99.90
5429;DHT22;2737;52.386;9.980;2023-04-25T12:16:23;7.90;99.90
5429;DHT22;2737;52.386;9.980;2023-04-25T12:18:53;8.00;99.90
5429;DHT22;2737;52.386;9.980;2023-04-25T12:21:20;8.30;99.90
5429;DHT22;2737;52.386;9.980;2023-04-25T12:23:47;8.50;99.90
5429;DHT22;2737;52.386;9.980;2023-04-25T12:26:14;8.60;99.90
5429;DHT22;2737;52.386;9.980;2023-04-25T12:28:45;8.80;99.90
5429;DHT22;2737;52.386;9.980;2023-04-25T12:31:12;8.80;99.90
5429;DHT22;2737;52.386;9.980;2023-04-25T12:33:41;9.20;99.90
5429;DHT22;2737;52.386;9.980;2023-04-25T12:36:10;9.70;99.90
5429;DHT22;2737;52.386;9.980;2023-04-25T12:38:40;9.80;99.90
5429;DHT22;2737;52.386;9.980;2023-04-25T12:41:07;10.00;99.90
5429;DHT22;2737;52.386;9.980;2023-04-25T12:43:35;10.20;99.90
5429;DHT22;2737;52.386;9.980;2023-04-25T12:46:02;10.30;99.90
5429;DHT22;2737;52.386;9.980;2023-04-25T12:48:29;10.30;99.90
5429;DHT22;2737;52.386;9.980;2023-04-25T12:50:56;10.10;99.90
5429;DHT22;2737;52.386;9.980;2023-04-25T12:53:25;9.90;99.90
5429;DHT22;2737;52.386;9.980;2023-04-25T12:55:52;9.60;99.90
5429;DHT22;2737;52.386;9.980;2023-04-25T12:58:19;9.10;99.90
5429;DHT22;2737;52.386;9.980;2023-04-25T13:00:46;8.70;99.90
5429;DHT22;2737;52.386;9.980;2023-04-25T13:03:14;8.60;99.90
5429;DHT22;2737;52.386;9.980;2023-04-25T13:05:41;8.60;99.90
5429;DHT22;2737;52.386;9.980;2023-04-25T13:08:08;8.40;99.90
5429;DHT22;2737;52.386;9.980;2023-04-25T13:10:37;8.40;99.90
5429;DHT22;2737;52.386;9.980;2023-04-25T13:13:04;8.40;99.90
5429;DHT22;2737;52.386;9.980;2023-04-25T13:15:31;8.30;99.60
5429;DHT22;2737;52.386;9.980;2023-04-25T13:17:58;8.30;99.90
5429;DHT22;2737;52.386;9.980;2023-04-25T13:20:25;8.60;99.90
5429;DHT22;2737;52.386;9.980;2023-04-25T13:22:52;8.70;99.70
5429;DHT22;2737;52.386;9.980;2023-04-25T13:25:19;8.70;99.90
5429;DHT22;2737;52.386;9.980;2023-04-25T13:27:48;8.80;99.90
5429;DHT22;2737;52.386;9.980;2023-04-25T13:30:15;8.80;99.90
5429;DHT22;2737;52.386;9.980;2023-04-25T13:32:42;8.60;99.90
5429;DHT22;2737;52.386;9.980;2023-04-25T13:35:11;8.50;99.90
5429;DHT22;2737;52.386;9.980;2023-04-25T13:37:39;8.50;99.90
5429;DHT22;2737;52.386;9.980;2023-04-25T13:40:08;8.40;99.90
5429;DHT22;2737;52.386;9.980;2023-04-25T13:42:35;8.40;99.90
5429;DHT22;2737;52.386;9.980;2023-04-25T13:45:04;8.40;99.90
5429;DHT22;2737;52.386;9.980;2023-04-25T13:47:32;8.40;99.90
5429;DHT22;2737;52.386;9.980;2023-04-25T13:49:59;8.40;99.90
5429;DHT22;2737;52.386;9.980;2023-04-25T13:52:28;8.50;99.90
5429;DHT22;2737;52.386;9.980;2023-04-25T13:54:55;8.60;99.90
5429;DHT22;2737;52.386;9.980;2023-04-25T13:57:22;8.80;99.90
5429;DHT22;2737;52.386;9.980;2023-04-25T13:59:49;9.00;99.90
5429;DHT22;2737;52.386;9.980;2023-04-25T14:02:18;9.20;99.90
5429;DHT22;2737;52.386;9.980;2023-04-25T14:04:45;9.40;99.90
5429;DHT22;2737;52.386;9.980;2023-04-25T14:07:12;9.60;99.90
5429;DHT22;2737;52.386;9.980;2023-04-25T14:09:41;9.70;99.90
5429;DHT22;2737;52.386;9.980;2023-04-25T14:12:08;9.50;99.90
5429;DHT22;2737;52.386;9.980;2023-04-25T14:14:36;9.40;99.90
5429;DHT22;2737;52.386;9.980;2023-04-25T14:17:03;8.80;99.90
5429;DHT22;2737;52.386;9.980;2023-04-25T14:19:32;8.60;99.90
5429;DHT22;2737;52.386;9.980;2023-04-25T14:21:59;7.50;99.90
5429;DHT22;2737;52.386;9.980;2023-04-25T14:24:26;7.10;99.90
5429;DHT22;2737;52.386;9.980;2023-04-25T14:26:53;7.00;99.90
5429;DHT22;2737;52.386;9.980;2023-04-25T14:29:20;7.10;99.90
5429;DHT22;2737;52.386;9.980;2023-04-25T14:31:47;7.30;99.90
5429;DHT22;2737;52.386;9.980;2023-04-25T14:34:14;7.30;99.90
5429;DHT22;2737;52.386;9.980;2023-04-25T14:36:42;7.50;99.90
5429;DHT22;2737;52.386;9.980;2023-04-25T14:39:09;7.80;99.90
5429;DHT22;2737;52.386;9.980;2023-04-25T14:41:38;8.10;99.90
5429;DHT22;2737;52.386;9.980;2023-04-25T14:44:05;8.40;99.90
5429;DHT22;2737;52.386;9.980;2023-04-25T14:46:32;8.60;99.90
5429;DHT22;2737;52.386;9.980;2023-04-25T14:49:00;8.80;99.90
5429;DHT22;2737;52.386;9.980;2023-04-25T14:51:28;8.80;99.90
5429;DHT22;2737;52.386;9.980;2023-04-25T14:53:56;8.90;99.90
5429;DHT22;2737;52.386;9.980;2023-04-25T14:56:23;9.10;99.90
5429;DHT22;2737;52.386;9.980;2023-04-25T14:58:51;9.20;99.90
5429;DHT22;2737;52.386;9.980;2023-04-25T15:01:18;9.20;99.90
5429;DHT22;2737;52.386;9.980;2023-04-25T15:03:46;9.30;99.90
5429;DHT22;2737;52.386;9.980;2023-04-25T15:06:13;9.40;99.90
5429;DHT22;2737;52.386;9.980;2023-04-25T15:08:40;9.30;99.90
5429;DHT22;2737;52.386;9.980;2023-04-25T15:11:09;8.50;99.90
5429;DHT22;2737;52.386;9.980;2023-04-25T15:13:36;7.80;99.90
5429;DHT22;2737;52.386;9.980;2023-04-25T15:16:04;7.40;99.90
5429;DHT22;2737;52.386;9.980;2023-04-25T15:18:32;7.30;99.90
5429;DHT22;2737;52.386;9.980;2023-04-25T15:20:59;7.10;99.90
5429;DHT22;2737;52.386;9.980;2023-04-25T15:23:26;7.20;99.90
5429;DHT22;2737;52.386;9.980;2023-04-25T15:25:53;7.20;99.90
5429;DHT22;2737;52.386;9.980;2023-04-25T15:28:22;7.20;99.90
5429;DHT22;2737;52.386;9.980;2023-04-25T15:30:49;7.40;99.90
5429;DHT22;2737;52.386;9.980;2023-04-25T15:33:16;7.40;99.90
5429;DHT22;2737;52.386;9.980;2023-04-25T15:35:43;7.50;99.90
5429;DHT22;2737;52.386;9.980;2023-04-25T15:38:10;7.50;99.90
5429;DHT22;2737;52.386;9.980;2023-04-25T15:40:37;7.50;99.90
5429;DHT22;2737;52.386;9.980;2023-04-25T15:43:04;7.60;99.90
5429;DHT22;2737;52.386;9.980;2023-04-25T15:45:33;7.60;99.90
5429;DHT22;2737;52.386;9.980;2023-04-25T15:48:02;7.70;99.90
5429;DHT22;2737;52.386;9.980;2023-04-25T15:50:29;8.00;99.90
5429;DHT22;2737;52.386;9.980;2023-04-25T15:52:57;8.10;99.90
5429;DHT22;2737;52.386;9.980;2023-04-25T15:55:24;8.20;99.90
5429;DHT22;2737;52.386;9.980;2023-04-25T15:57:52;8.30;99.90
5429;DHT22;2737;52.386;9.980;2023-04-25T16:00:19;8.50;99.90
5429;DHT22;2737;52.386;9.980;2023-04-25T16:02:48;8.60;99.90
5429;DHT22;2737;52.386;9.980;2023-04-25T16:05:16;8.70;99.90
5429;DHT22;2737;52.386;9.980;2023-04-25T16:07:44;8.70;99.90
5429;DHT22;2737;52.386;9.980;2023-04-25T16:10:13;8.60;99.90
5429;DHT22;2737;52.386;9.980;2023-04-25T16:12:41;8.50;99.90
5429;DHT22;2737;52.386;9.980;2023-04-25T16:15:09;8.40;99.90
5429;DHT22;2737;52.386;9.980;2023-04-25T16:17:36;8.40;99.90
5429;DHT22;2737;52.386;9.980;2023-04-25T16:20:05;8.10;99.90
5429;DHT22;2737;52.386;9.980;2023-04-25T16:22:34;8.00;99.90